EGKKEGXC

Guest
Details From EGKK - London Gatwick
To EGXC - RAF Coningsby
Flight Number -
Tags generated
Created
Modified
Stats Distance 117 nm / 216 km
Max Altitude 8,700 ft / 2,652 m
Waypoints 3
Social Downloads 0
Likes 0
Share VATSIM

Download

Looking for another format? Having issues loading an existing format? Contact us
Advertisement - Login to hide

Notes

Basic altitude profile: - Ascent Rate: 2000ft/min - Ascent Speed: 250kts - Cruise Altitude: 31000ft - Cruise Speed: 420kts - Descent Rate: 1800ft/min - Descent Speed: 250kts Options: - Use NATs: yes - Use PACOTS: yes - Use low airways: yes - Use high airways: yes

Route

EGKK FINCH EGXC

ID Type Via Altitude Latitude Longitude Leg Dist Tot Dist Heading (true) Name
O EGKK APT - 0 ft / 0 m 51.14875˚ -0.19247˚ - 0 nm - London Gatwick
FINCH FIX - 8,700 ft / 2,652 m 51.55846˚ -0.19627˚ 24 nm 24 nm 360° / 360° -
O EGXC APT - 0 ft / 0 m 53.09316˚ -0.16613˚ 92 nm 116 nm 1° / 1° RAF Coningsby

Altitude Profile

Advertisement - Login to hide

EGKK

Details ICAO EGKK (LGW)
Name London Gatwick
Region United Kingdom
Timezone Europe/London (UTC+1.0)
Stats Elevation 196 ft / 60 m (AMSL)
Location 51.148753° -0.192472°
Runways 2
Magnetic Variation 0.370° W

METAR

EGKK 201020Z 08005KT 050V130 CAVOK 15/10 Q1023

Decode

TAF

TAF AMD EGKK 200749Z 2008/2112 VRB03KT 2000 BR SCT001 BECMG 2008/2011 9999 NSW SCT030 BECMG 2022/2101 7000 TEMPO 2101/2107 4000 BR BKN004 PROB30 TEMPO 2101/2107 0500 FG BKN001 BECMG 2107/2110 9999 PROB30 TEMPO 2110/2112 6000 SHRA

Decode

Departure Runways

ID Width Length Bearing (true) Bearing (mag) Surface Threshold Offset Overrun Length
08L 148 ft / 45 m 8,377 ft / 2,553 m 77.69° 78.06° Asphalt 1,053 ft / 321 m 0 ft / 0 m
08R 148 ft / 45 m 10,341 ft / 3,152 m 77.59° 77.96° Asphalt 1,289 ft / 393 m 0 ft / 0 m
26L 148 ft / 45 m 10,341 ft / 3,152 m 257.63° 258.00° Asphalt 879 ft / 268 m 600 ft / 183 m
26R 148 ft / 45 m 8,377 ft / 2,553 m 257.71° 258.08° Asphalt 1,365 ft / 416 m 0 ft / 0 m

EGXC

Details ICAO EGXC (QCY)
Name RAF Coningsby
Region United Kingdom
Timezone Europe/London (UTC+1.0)
Stats Elevation 25 ft / 8 m (AMSL)
Location 53.093165° -0.166128°
Runways 1
Magnetic Variation 0.575° W

METAR

EGXC 200950Z 13006KT CAVOK 16/11 Q1023 BLU

Decode

TAF

TAF EGXC 200756Z 2009/2103 12008KT 9999 FEW010 BECMG 2023/2102 7000 BR PROB30 2102/2103 0600 FG BKN001

Decode

Destination Runways

ID Width Length Bearing (true) Bearing (mag) Surface Threshold Offset Overrun Length
08 200 ft / 61 m 8,962 ft / 2,732 m 71.85° 72.43° Concrete 0 ft / 0 m 0 ft / 0 m
26 200 ft / 61 m 8,962 ft / 2,732 m 251.89° 252.47° Concrete 0 ft / 0 m 0 ft / 0 m

Approach Navaids

Runway Type Ident Frequency Range Bearing (true) Bearing (mag) Slope Elevation
26 Localiser CY 110.70 MHz 18 nm / 33 km 251.85° 252.42° - 25 ft / 8 m (AMSL)
26 Glidescope CY 110.70 MHz 10 nm / 19 km 251.87° 252.45° 2.50° 25 ft / 8 m (AMSL)

Popular Alternatives